createdAt,value
2019-04-26T00:02:42.424Z,76.66
2019-04-26T00:05:10.218Z,76.94
2019-04-26T00:07:36.563Z,76.76
2019-04-26T00:10:03.626Z,76.73
2019-04-26T00:12:30.645Z,76.82
2019-04-26T00:15:03.401Z,77.01
2019-04-26T00:17:45.350Z,76.68
2019-04-26T00:20:12.977Z,76.91
2019-04-26T00:22:39.563Z,76.98
2019-04-26T00:25:06.587Z,77.18
2019-04-26T00:27:33.644Z,77.34
2019-04-26T00:30:00.679Z,76.78
2019-04-26T00:32:28.168Z,77.39
2019-04-26T00:34:55.619Z,77.61
2019-04-26T00:37:22.628Z,77.44
2019-04-26T00:39:49.669Z,77.30
2019-04-26T00:42:16.691Z,77.78
2019-04-26T00:44:43.686Z,77.66
2019-04-26T00:47:10.715Z,78.77
2019-04-26T00:49:43.947Z,79.32
2019-04-26T00:52:05.114Z,79.66
2019-04-26T00:54:32.175Z,79.82
2019-04-26T00:56:59.157Z,78.89
2019-04-26T00:59:26.159Z,79.23
2019-04-26T01:01:53.163Z,78.77
2019-04-26T01:04:20.931Z,78.75
2019-04-26T01:06:47.187Z,78.92
2019-04-26T01:09:15.924Z,78.03
2019-04-26T01:11:41.277Z,77.92
2019-04-26T01:14:08.324Z,78.41
2019-04-26T01:16:35.323Z,76.92
2019-04-26T01:19:02.339Z,76.83
2019-04-26T01:21:29.795Z,76.89
2019-04-26T01:23:56.783Z,77.65
2019-04-26T01:26:23.799Z,78.03
2019-04-26T01:28:52.617Z,77.84
2019-04-26T01:31:19.967Z,77.29
2019-04-26T01:33:46.693Z,76.90
2019-04-26T01:36:13.819Z,77.53
2019-04-26T01:38:40.736Z,77.12
2019-04-26T01:41:08.336Z,77.29
2019-04-26T01:43:45.271Z,77.80
2019-04-26T01:46:12.958Z,76.35
2019-04-26T01:48:43.553Z,76.83
2019-04-26T01:51:10.646Z,77.40
2019-04-26T01:53:37.794Z,76.78
2019-04-26T01:56:04.925Z,75.58
2019-04-26T01:58:32.012Z,76.09
2019-04-26T02:03:50.911Z,75.46
2019-04-26T02:06:25.433Z,75.68
2019-04-26T02:08:45.025Z,74.91
2019-04-26T02:11:12.047Z,75.59
2019-04-26T02:13:39.035Z,75.66
2019-04-26T02:16:06.074Z,75.45
2019-04-26T02:18:33.559Z,75.28
2019-04-26T02:21:01.083Z,75.27
2019-04-26T02:23:39.877Z,76.26
2019-04-26T02:26:12.429Z,76.44
2019-04-26T02:28:39.646Z,77.31
2019-04-26T02:31:06.754Z,77.39
2019-04-26T02:33:35.345Z,76.99
2019-04-26T02:36:00.997Z,76.24
2019-04-26T02:38:29.321Z,75.58
2019-04-26T02:40:55.062Z,75.38
2019-04-26T02:43:22.380Z,75.56
2019-04-26T02:45:52.059Z,76.60
2019-04-26T02:48:20.817Z,76.73
2019-04-26T02:50:57.752Z,77.33
2019-04-26T02:53:29.669Z,77.47
2019-04-26T02:56:11.791Z,77.53
2019-04-26T03:01:38.748Z,78.82
2019-04-26T03:04:03.934Z,78.45
2019-04-26T03:06:33.913Z,77.79
2019-04-26T03:08:58.054Z,77.38
2019-04-26T03:11:25.056Z,77.54
2019-04-26T03:13:55.288Z,76.89
2019-04-26T03:16:22.283Z,77.70
2019-04-26T03:18:54.084Z,77.02
2019-04-26T03:23:58.537Z,77.57
2019-04-26T03:26:25.519Z,77.64
2019-04-26T03:28:52.550Z,77.44
2019-04-26T03:31:52.035Z,77.35
2019-04-26T03:34:10.431Z,76.89
2019-04-26T03:37:00.053Z,77.04
2019-04-26T03:39:27.942Z,77.57
2019-04-26T03:42:02.332Z,77.66
2019-04-26T03:46:58.826Z,77.23
2019-04-26T03:49:29.743Z,77.90
2019-04-26T03:51:58.711Z,77.00
2019-04-26T03:54:25.755Z,77.13
2019-04-26T03:56:56.627Z,77.35
2019-04-26T03:59:29.139Z,77.73
2019-04-26T04:02:07.864Z,76.90
2019-04-26T04:04:49.792Z,77.16
2019-04-26T04:07:16.814Z,77.72
2019-04-26T04:09:46.898Z,77.50
2019-04-26T04:12:23.828Z,78.22
2019-04-26T04:14:51.595Z,77.57
2019-04-26T04:17:21.291Z,76.85
2019-04-26T04:19:54.659Z,77.01
2019-04-26T04:22:22.261Z,77.27
2019-04-26T04:25:02.161Z,76.04
2019-04-26T04:27:29.186Z,76.50
2019-04-26T04:29:56.197Z,76.65
2019-04-26T04:32:28.968Z,76.38
2019-04-26T04:34:55.950Z,75.48
2019-04-26T04:37:22.960Z,74.94
2019-04-26T04:39:50.761Z,75.45
2019-04-26T04:42:20.734Z,75.89
2019-04-26T04:44:59.405Z,75.90
2019-04-26T04:47:30.934Z,75.53
2019-04-26T04:50:06.758Z,75.34
2019-04-26T04:52:50.142Z,74.81
2019-04-26T04:55:19.019Z,74.29
2019-04-26T04:57:50.422Z,74.18
2019-04-26T05:03:38.811Z,74.05
2019-04-26T05:06:14.328Z,73.77
2019-04-26T05:08:53.080Z,73.33
2019-04-26T05:11:19.219Z,72.96
2019-04-26T05:16:59.435Z,70.74
2019-04-26T05:22:39.408Z,73.21
2019-04-26T05:25:18.639Z,72.77
2019-04-26T05:27:55.094Z,73.48
2019-04-26T05:30:43.182Z,73.40
2019-04-26T05:33:12.345Z,73.09
2019-04-26T05:38:47.811Z,73.94
2019-04-26T05:44:12.950Z,70.88
2019-04-26T05:46:59.073Z,72.21
2019-04-26T05:52:39.343Z,71.73
2019-04-26T05:55:22.827Z,72.98
2019-04-26T05:57:52.563Z,73.18
2019-04-26T06:00:32.630Z,72.69
2019-04-26T06:03:11.585Z,73.28
2019-04-26T06:05:40.798Z,73.01
2019-04-26T06:08:31.260Z,72.41
2019-04-26T06:11:06.319Z,71.88
2019-04-26T06:13:55.918Z,71.95
2019-04-26T06:16:36.690Z,72.82
2019-04-26T06:25:32.269Z,69.31
2019-04-26T06:28:02.793Z,69.65
2019-04-26T06:30:31.012Z,70.49
2019-04-26T06:33:04.760Z,71.08
2019-04-26T06:35:29.800Z,71.23
2019-04-26T06:41:01.035Z,70.65
2019-04-26T06:43:28.968Z,70.31
2019-04-26T06:46:04.712Z,70.71
2019-04-26T06:48:39.016Z,70.39
2019-04-26T06:51:24.675Z,70.53
2019-04-26T06:53:58.593Z,69.32
2019-04-26T06:59:43.095Z,68.67
2019-04-26T07:02:13.679Z,67.79
2019-04-26T07:05:15.318Z,66.97
2019-04-26T07:07:44.674Z,67.70
2019-04-26T07:10:27.967Z,67.27
2019-04-26T07:13:07.870Z,68.36
2019-04-26T07:15:41.814Z,67.16
2019-04-26T07:18:12.850Z,66.53
2019-04-26T07:20:42.486Z,66.31
2019-04-26T07:26:25.616Z,64.75
2019-04-26T07:29:04.691Z,64.82
2019-04-26T07:31:49.106Z,65.02
2019-04-26T07:34:23.454Z,64.72
2019-04-26T07:40:09.394Z,62.08
2019-04-26T07:42:47.332Z,62.30
2019-04-26T07:45:24.254Z,62.43
2019-04-26T07:51:13.795Z,60.81
2019-04-26T07:53:47.937Z,61.06
2019-04-26T07:56:21.083Z,61.70
2019-04-26T07:59:02.767Z,63.33
2019-04-26T08:01:29.332Z,62.57
2019-04-26T08:04:00.500Z,62.31
2019-04-26T08:06:28.982Z,62.39
2019-04-26T08:09:07.438Z,62.25
2019-04-26T08:11:36.644Z,62.47
2019-04-26T08:14:06.236Z,62.54
2019-04-26T08:16:33.618Z,62.74
2019-04-26T08:19:01.063Z,62.26
2019-04-26T08:21:31.747Z,62.52
2019-04-26T08:23:57.741Z,61.98
2019-04-26T08:26:26.244Z,62.32
2019-04-26T08:28:51.670Z,62.03
2019-04-26T08:31:21.216Z,62.13
2019-04-26T08:33:48.688Z,62.10
2019-04-26T08:36:14.720Z,61.37
2019-04-26T08:38:41.928Z,60.79
2019-04-26T08:41:09.855Z,60.24
2019-04-26T08:43:37.383Z,59.77
2019-04-26T08:46:12.822Z,59.61
2019-04-26T08:48:40.502Z,59.75
2019-04-26T08:51:15.377Z,60.02
2019-04-26T08:53:39.959Z,60.21
2019-04-26T08:56:07.411Z,59.45
2019-04-26T08:58:34.903Z,59.02
2019-04-26T09:03:54.618Z,56.92
2019-04-26T09:06:27.660Z,56.11
2019-04-26T09:08:55.140Z,57.02
2019-04-26T09:11:26.407Z,57.09
2019-04-26T09:13:50.364Z,57.24
2019-04-26T09:16:17.974Z,57.47
2019-04-26T09:18:52.512Z,56.92
2019-04-26T09:21:16.832Z,57.25
2019-04-26T09:23:50.843Z,56.94
2019-04-26T09:26:32.640Z,56.68
2019-04-26T09:29:05.590Z,57.27
2019-04-26T09:34:33.173Z,57.37
2019-04-26T09:37:00.884Z,57.66
2019-04-26T09:39:28.392Z,57.81
2019-04-26T09:42:01.200Z,57.69
2019-04-26T09:44:31.402Z,57.97
2019-04-26T09:47:13.596Z,56.91
2019-04-26T09:49:42.322Z,57.30
2019-04-26T09:52:09.973Z,57.47
2019-04-26T09:54:37.530Z,56.28
2019-04-26T09:57:04.988Z,56.10
2019-04-26T09:59:32.489Z,55.37
2019-04-26T10:02:00.311Z,55.88
2019-04-26T10:04:27.450Z,55.94
2019-04-26T10:06:54.921Z,55.92
2019-04-26T10:09:22.794Z,55.81
2019-04-26T10:11:50.793Z,54.36
2019-04-26T10:14:19.182Z,53.90
2019-04-26T10:16:53.205Z,53.97
2019-04-26T10:19:20.831Z,53.38
2019-04-26T10:21:48.298Z,52.97
2019-04-26T10:24:15.765Z,52.23
2019-04-26T10:26:43.207Z,51.52
2019-04-26T10:29:10.735Z,51.15
2019-04-26T10:31:38.207Z,50.48
2019-04-26T10:34:07.740Z,50.26
2019-04-26T10:36:33.141Z,50.60
2019-04-26T10:39:00.623Z,50.87
2019-04-26T10:41:28.119Z,50.27
2019-04-26T10:43:55.615Z,48.61
2019-04-26T10:46:24.566Z,48.33
2019-04-26T10:48:51.312Z,48.46
2019-04-26T10:51:18.254Z,48.38
2019-04-26T10:53:50.486Z,48.47
2019-04-26T10:56:24.205Z,48.40
2019-04-26T10:58:51.644Z,48.43
2019-04-26T11:01:19.074Z,47.97
2019-04-26T11:03:46.532Z,46.76
2019-04-26T11:06:14.061Z,46.42
2019-04-26T11:08:41.139Z,45.79
2019-04-26T11:11:08.188Z,44.68
2019-04-26T11:13:35.223Z,45.06
2019-04-26T11:16:06.487Z,44.58
2019-04-26T11:18:29.708Z,43.27
2019-04-26T11:20:57.150Z,42.64
2019-04-26T11:23:24.599Z,42.96
2019-04-26T11:25:52.067Z,43.10
2019-04-26T11:28:21.382Z,41.92
2019-04-26T11:30:47.999Z,41.69
2019-04-26T11:33:14.553Z,40.42
2019-04-26T11:35:42.124Z,39.52
2019-04-26T11:38:09.607Z,37.72
2019-04-26T11:40:37.077Z,37.39
2019-04-26T11:43:04.585Z,37.27
2019-04-26T11:45:32.049Z,37.20
2019-04-26T11:47:59.553Z,38.18
2019-04-26T11:50:27.012Z,37.93
2019-04-26T11:52:54.520Z,38.81
2019-04-26T11:55:25.288Z,38.52
2019-04-26T11:57:49.473Z,38.70
2019-04-26T12:00:28.835Z,40.66
2019-04-26T12:02:56.289Z,41.98
2019-04-26T12:05:25.546Z,43.08
2019-04-26T12:07:55.572Z,43.68
2019-04-26T12:10:23.052Z,44.75
2019-04-26T12:12:51.782Z,45.98
2019-04-26T12:15:29.738Z,46.79
2019-04-26T12:17:57.912Z,48.04
2019-04-26T12:20:13.093Z,49.68
2019-04-26T12:22:43.257Z,51.31
2019-04-26T12:25:08.350Z,52.39
2019-04-26T12:27:35.657Z,54.31
2019-04-26T12:30:03.141Z,55.48
2019-04-26T12:32:30.635Z,56.17
2019-04-26T12:34:58.264Z,58.70
2019-04-26T12:37:25.835Z,62.31
2019-04-26T12:39:53.315Z,65.43
2019-04-26T12:42:20.839Z,69.79
2019-04-26T12:44:51.301Z,70.42
2019-04-26T12:47:21.253Z,71.20
2019-04-26T12:49:48.810Z,71.96
2019-04-26T12:52:17.396Z,72.42
2019-04-26T12:54:44.475Z,73.04
2019-04-26T12:57:10.908Z,72.65
2019-04-26T12:59:44.388Z,72.58
2019-04-26T13:02:06.231Z,71.44
2019-04-26T13:04:36.310Z,70.03
2019-04-26T13:07:02.321Z,70.19
2019-04-26T13:09:29.255Z,70.80
2019-04-26T13:12:02.298Z,70.90
2019-04-26T13:17:35.525Z,69.33
2019-04-26T13:19:58.904Z,65.77
2019-04-26T13:22:26.375Z,63.77
2019-04-26T13:24:53.839Z,63.56
2019-04-26T13:27:21.303Z,61.39
2019-04-26T13:30:01.378Z,60.07
2019-04-26T13:32:16.304Z,59.77
2019-04-26T13:34:43.751Z,60.64
2019-04-26T13:37:11.190Z,58.67
2019-04-26T13:39:38.630Z,57.58
2019-04-26T13:42:09.308Z,56.89
2019-04-26T13:44:39.516Z,56.22
2019-04-26T13:47:21.590Z,55.29
2019-04-26T13:49:54.659Z,54.12
2019-04-26T13:52:22.295Z,53.94
2019-04-26T13:54:51.175Z,53.23
2019-04-26T13:57:17.297Z,50.71
2019-04-26T13:59:44.735Z,49.56
2019-04-26T14:02:12.281Z,49.82
2019-04-26T14:04:41.118Z,49.01
2019-04-26T14:07:07.135Z,49.55
2019-04-26T14:09:34.586Z,49.03
2019-04-26T14:12:10.095Z,47.74
2019-04-26T14:14:30.195Z,47.18
2019-04-26T14:16:57.175Z,45.30
2019-04-26T14:19:24.644Z,45.96
2019-04-26T14:21:52.115Z,46.13
2019-04-26T14:24:32.261Z,45.18
2019-04-26T14:27:00.143Z,44.92
2019-04-26T14:29:28.409Z,45.18
2019-04-26T14:31:55.067Z,43.84
2019-04-26T14:34:22.523Z,43.75
2019-04-26T14:36:50.008Z,43.57
2019-04-26T14:39:19.632Z,42.98
2019-04-26T14:41:45.039Z,43.35
2019-04-26T14:44:15.749Z,44.95
2019-04-26T14:46:48.729Z,43.92
2019-04-26T14:49:07.451Z,42.03
2019-04-26T14:51:34.935Z,41.28
2019-04-26T14:54:02.398Z,41.00
2019-04-26T14:56:30.885Z,40.56
2019-04-26T14:58:57.325Z,39.89
2019-04-26T15:01:32.248Z,41.27
2019-04-26T15:04:03.616Z,43.31
2019-04-26T15:06:32.207Z,45.98
2019-04-26T15:08:58.569Z,47.21
2019-04-26T15:11:26.032Z,48.44
2019-04-26T15:13:53.477Z,48.07
2019-04-26T15:16:22.736Z,48.70
2019-04-26T15:18:48.562Z,48.86
2019-04-26T15:21:16.045Z,49.71
2019-04-26T15:23:43.576Z,49.80
2019-04-26T15:26:12.834Z,49.70
2019-04-26T15:28:38.629Z,50.14
2019-04-26T15:31:06.156Z,49.60
2019-04-26T15:33:35.886Z,49.12
2019-04-26T15:36:02.241Z,49.17
2019-04-26T15:38:34.843Z,49.02
2019-04-26T15:40:58.079Z,49.11
2019-04-26T15:43:38.447Z,49.18
2019-04-26T15:49:17.778Z,51.18
2019-04-26T15:51:45.285Z,51.66
2019-04-26T15:54:12.751Z,52.36
2019-04-26T15:56:40.245Z,52.47
2019-04-26T15:59:07.705Z,51.44
2019-04-26T16:01:35.157Z,51.71
2019-04-26T16:04:06.331Z,51.80
2019-04-26T16:06:30.204Z,51.35
2019-04-26T16:08:57.663Z,51.12
2019-04-26T16:11:25.231Z,50.24
2019-04-26T16:13:58.597Z,48.21
2019-04-26T16:16:29.177Z,47.36
2019-04-26T16:18:57.041Z,47.49
2019-04-26T16:21:22.050Z,48.24
2019-04-26T16:23:51.987Z,48.13
2019-04-26T16:26:16.105Z,47.46
2019-04-26T16:28:46.050Z,45.67
2019-04-26T16:31:30.165Z,45.45
2019-04-26T16:33:59.439Z,44.46
2019-04-26T16:36:26.994Z,44.46
2019-04-26T16:38:57.846Z,44.61
2019-04-26T16:41:27.329Z,44.83
2019-04-26T16:43:53.041Z,46.32
2019-04-26T16:46:20.630Z,47.15
2019-04-26T16:48:44.669Z,47.80
2019-04-26T16:51:14.465Z,47.92
2019-04-26T16:53:58.805Z,48.07
2019-04-26T16:56:07.168Z,48.67
2019-04-26T16:58:38.314Z,48.87
2019-04-26T17:01:04.551Z,48.99
2019-04-26T17:03:29.703Z,49.14
2019-04-26T17:06:05.217Z,49.30
2019-04-26T17:08:24.733Z,49.65
2019-04-26T17:10:56.334Z,50.02
2019-04-26T17:13:23.478Z,49.68
2019-04-26T17:15:47.303Z,49.92
2019-04-26T17:18:14.776Z,50.01
2019-04-26T17:20:44.902Z,50.00
2019-04-26T17:23:15.319Z,49.89
2019-04-26T17:25:48.358Z,49.60
2019-04-26T17:28:17.947Z,49.45
2019-04-26T17:30:44.658Z,49.19
2019-04-26T17:33:10.921Z,48.45
2019-04-26T17:35:40.910Z,48.53
2019-04-26T17:38:05.958Z,48.63
2019-04-26T17:40:36.690Z,49.13
2019-04-26T17:43:01.124Z,49.10
2019-04-26T17:45:30.539Z,49.35
2019-04-26T17:47:56.207Z,49.57
2019-04-26T17:50:23.760Z,49.55
2019-04-26T17:52:51.590Z,50.05
2019-04-26T17:55:18.768Z,50.51
2019-04-26T17:57:49.940Z,50.94
2019-04-26T18:00:15.622Z,51.09
2019-04-26T18:02:47.538Z,51.60
2019-04-26T18:05:08.940Z,51.88
2019-04-26T18:07:43.272Z,52.24
2019-04-26T18:10:04.951Z,52.53
2019-04-26T18:12:32.673Z,52.63
2019-04-26T18:15:00.092Z,52.33
2019-04-26T18:17:38.838Z,52.89
2019-04-26T18:20:05.217Z,53.26
2019-04-26T18:22:37.259Z,53.72
2019-04-26T18:25:10.860Z,53.96
2019-04-26T18:27:35.756Z,54.13
2019-04-26T18:30:06.590Z,54.32
2019-04-26T18:32:27.396Z,54.48
2019-04-26T18:34:54.883Z,54.51
2019-04-26T18:37:23.136Z,54.65
2019-04-26T18:39:49.991Z,55.04
2019-04-26T18:42:17.477Z,55.35
2019-04-26T18:44:48.059Z,55.44
2019-04-26T18:47:14.674Z,55.52
2019-04-26T18:49:40.107Z,55.75
2019-04-26T18:52:08.946Z,55.78
2019-04-26T18:54:40.874Z,55.59
2019-04-26T18:57:09.594Z,55.40
2019-04-26T18:59:35.993Z,55.79
2019-04-26T19:02:03.958Z,55.75
2019-04-26T19:04:30.974Z,56.05
2019-04-26T19:06:58.495Z,55.75
2019-04-26T19:09:25.957Z,55.57
2019-04-26T19:11:55.970Z,55.49
2019-04-26T19:14:26.635Z,55.50
2019-04-26T19:16:59.472Z,55.48
2019-04-26T19:19:32.560Z,55.55
2019-04-26T19:22:01.561Z,56.17
2019-04-26T19:24:27.931Z,56.05
2019-04-26T19:26:55.398Z,55.96
2019-04-26T19:29:32.710Z,55.82
2019-04-26T19:31:51.951Z,56.04
2019-04-26T19:34:17.971Z,56.91
2019-04-26T19:36:45.396Z,56.69
2019-04-26T19:39:12.854Z,56.27
2019-04-26T19:41:41.925Z,56.58
2019-04-26T19:44:07.815Z,55.97
2019-04-26T19:46:37.912Z,55.74
2019-04-26T19:49:12.488Z,55.65
2019-04-26T19:51:38.557Z,55.93
2019-04-26T19:54:15.930Z,56.35
2019-04-26T19:56:56.594Z,56.46
2019-04-26T19:59:23.426Z,56.57
2019-04-26T20:01:55.238Z,56.98
2019-04-26T20:04:17.665Z,57.42
2019-04-26T20:06:48.436Z,57.74
2019-04-26T20:09:13.779Z,58.05
2019-04-26T20:11:41.858Z,58.28
2019-04-26T20:14:07.773Z,58.24
2019-04-26T20:16:36.467Z,58.12
2019-04-26T20:19:02.726Z,57.90
2019-04-26T20:21:32.606Z,58.07
2019-04-26T20:23:57.740Z,58.13
2019-04-26T20:26:25.287Z,58.37
2019-04-26T20:28:52.822Z,58.83
2019-04-26T20:31:30.934Z,58.83
2019-04-26T20:33:58.422Z,58.80
2019-04-26T20:36:25.917Z,59.37
2019-04-26T20:38:53.384Z,59.51
2019-04-26T20:41:22.013Z,59.33
2019-04-26T20:44:02.286Z,59.47
2019-04-26T20:46:15.971Z,59.82
2019-04-26T20:48:43.391Z,59.70
2019-04-26T20:51:11.910Z,59.92
2019-04-26T20:53:41.354Z,59.72
2019-04-26T20:56:09.784Z,59.70
2019-04-26T20:58:37.495Z,59.71
2019-04-26T21:01:01.760Z,60.08
2019-04-26T21:03:29.220Z,60.34
2019-04-26T21:05:59.203Z,60.37
2019-04-26T21:08:26.720Z,60.90
2019-04-26T21:10:52.127Z,61.11
2019-04-26T21:13:19.319Z,61.20
2019-04-26T21:15:58.028Z,61.03
2019-04-26T21:18:14.284Z,61.01
2019-04-26T21:20:42.519Z,61.50
2019-04-26T21:23:09.295Z,61.47
2019-04-26T21:25:37.783Z,61.42
2019-04-26T21:28:23.965Z,61.16
2019-04-26T21:30:52.934Z,60.75
2019-04-26T21:33:38.993Z,60.50
2019-04-26T21:36:05.951Z,60.38
2019-04-26T21:38:37.611Z,60.25
2019-04-26T21:41:11.149Z,59.96
2019-04-26T21:43:34.690Z,60.02
2019-04-26T21:46:07.847Z,60.04
2019-04-26T21:48:27.975Z,60.31
2019-04-26T21:50:55.423Z,60.52
2019-04-26T21:53:23.993Z,59.77
2019-04-26T21:55:50.379Z,59.80
2019-04-26T21:58:17.887Z,59.79
2019-04-26T22:03:38.418Z,59.08
2019-04-26T22:06:05.936Z,58.79
2019-04-26T22:08:34.771Z,59.04
2019-04-26T22:11:01.432Z,59.02
2019-04-26T22:13:31.309Z,59.07
2019-04-26T22:16:00.191Z,59.35
2019-04-26T22:18:28.190Z,59.01
2019-04-26T22:20:55.651Z,59.03
2019-04-26T22:23:26.900Z,58.92
2019-04-26T22:25:55.970Z,58.76
2019-04-26T22:28:23.443Z,58.73
2019-04-26T22:30:49.368Z,58.92
2019-04-26T22:33:16.901Z,59.00
2019-04-26T22:35:44.337Z,58.71
2019-04-26T22:38:11.801Z,58.55
2019-04-26T22:40:39.394Z,58.59
2019-04-26T22:43:20.226Z,58.70
2019-04-26T22:45:53.877Z,58.89
2019-04-26T22:48:23.774Z,59.04
2019-04-26T22:50:53.700Z,59.61
2019-04-26T22:53:17.298Z,60.13
2019-04-26T22:55:44.755Z,60.43
2019-04-26T22:58:13.450Z,60.67
2019-04-26T23:00:39.679Z,60.98
2019-04-26T23:03:07.384Z,60.89
2019-04-26T23:05:36.610Z,60.94
2019-04-26T23:08:03.351Z,61.19
2019-04-26T23:10:32.062Z,61.02
2019-04-26T23:13:08.765Z,61.10
2019-04-26T23:15:47.077Z,61.31
2019-04-26T23:18:24.455Z,61.66
2019-04-26T23:20:56.746Z,61.91
2019-04-26T23:23:24.194Z,62.03
2019-04-26T23:25:51.675Z,61.90
2019-04-26T23:28:19.339Z,62.08
2019-04-26T23:30:46.820Z,62.54
2019-04-26T23:33:15.164Z,63.48
2019-04-26T23:35:45.747Z,64.29
2019-04-26T23:38:09.239Z,65.20
2019-04-26T23:40:36.691Z,66.09
2019-04-26T23:43:04.151Z,65.86
2019-04-26T23:45:33.176Z,65.78
2019-04-26T23:47:59.095Z,66.11
2019-04-26T23:50:29.511Z,66.52
2019-04-26T23:52:54.113Z,67.09
2019-04-26T23:55:21.585Z,67.16
2019-04-26T23:57:49.226Z,67.33
